Map

Track Data

SID SEASON NUMBER BASIN SUBBASIN NAME ISO_TIME NATURE LAT LON WMO_WIND WMO_PRES WMO_AGENCY TRACK_TYPE DIST2LAND LANDFALL IFLAG USA_AGENCY USA_ATCF_ID USA_LAT USA_LON USA_RECORD USA_STATUS USA_WIND USA_PRES USA_SSHS USA_R34_NE USA_R34_SE USA_R34_SW USA_R34_NW USA_R50_NE USA_R50_SE USA_R50_SW USA_R50_NW USA_R64_NE USA_R64_SE USA_R64_SW USA_R64_NW USA_POCI USA_ROCI USA_RMW USA_EYE TOKYO_LAT TOKYO_LON TOKYO_GRADE TOKYO_WIND TOKYO_PRES TOKYO_R50_DIR TOKYO_R50_LONG TOKYO_R50_SHORT TOKYO_R30_DIR TOKYO_R30_LONG TOKYO_R30_SHORT TOKYO_LAND CMA_LAT CMA_LON CMA_CAT CMA_WIND CMA_PRES HKO_LAT HKO_LON HKO_CAT HKO_WIND HKO_PRES NEWDELHI_LAT NEWDELHI_LON NEWDELHI_GRADE NEWDELHI_WIND NEWDELHI_PRES NEWDELHI_CI NEWDELHI_DP NEWDELHI_POCI REUNION_LAT REUNION_LON REUNION_TYPE REUNION_WIND REUNION_PRES REUNION_TNUM REUNION_CI REUNION_RMW REUNION_R34_NE REUNION_R34_SE REUNION_R34_SW REUNION_R34_NW REUNION_R50_NE REUNION_R50_SE REUNION_R50_SW REUNION_R50_NW REUNION_R64_NE REUNION_R64_SE REUNION_R64_SW REUNION_R64_NW BOM_LAT BOM_LON BOM_TYPE BOM_WIND BOM_PRES BOM_TNUM BOM_CI BOM_RMW BOM_R34_NE BOM_R34_SE BOM_R34_SW BOM_R34_NW BOM_R50_NE BOM_R50_SE BOM_R50_SW BOM_R50_NW BOM_R64_NE BOM_R64_SE BOM_R64_SW BOM_R64_NW BOM_ROCI BOM_POCI BOM_EYE BOM_POS_METHOD BOM_PRES_METHOD NADI_LAT NADI_LON NADI_CAT NADI_WIND NADI_PRES WELLINGTON_LAT WELLINGTON_LON WELLINGTON_WIND WELLINGTON_PRES DS824_LAT DS824_LON DS824_STAGE DS824_WIND DS824_PRES TD9636_LAT TD9636_LON TD9636_STAGE TD9636_WIND TD9636_PRES TD9635_LAT TD9635_LON TD9635_WIND TD9635_PRES TD9635_ROCI NEUMANN_LAT NEUMANN_LON NEUMANN_CLASS NEUMANN_WIND NEUMANN_PRES MLC_LAT MLC_LON MLC_CLASS MLC_WIND MLC_PRES USA_GUST BOM_GUST BOM_GUST_PER REUNION_GUST REUNION_GUST_PER USA_SEAHGT USA_SEARAD_NE USA_SEARAD_SE USA_SEARAD_SW USA_SEARAD_NW STORM_SPEED STORM_DIR
1942270N30297 1942 58 NA NA NOT_NAMED 1942-09-27 06:00:00 TS 29.8000 -63.5000 35 hurdat_atl main 1291 1280 O_____________ hurdat_atl AL071942 29.8000 -63.5000 TS 35 0 5 295
1942270N30297 1942 58 NA NA NOT_NAMED 1942-09-27 09:00:00 TS 29.9001 -63.7499 main 1280 1250 P_____________ AL071942 29.9001 -63.7499 TS 35 0 5 295
1942270N30297 1942 58 NA NA NOT_NAMED 1942-09-27 12:00:00 TS 30.0000 -64.0000 35 hurdat_atl main 1250 1228 O_____________ hurdat_atl AL071942 30.0000 -64.0000 TS 35 0 5 295
1942270N30297 1942 58 NA NA NOT_NAMED 1942-09-27 15:00:00 TS 30.1000 -64.2501 main 1220 1198 P_____________ AL071942 30.1000 -64.2501 TS 35 0 5 295
1942270N30297 1942 58 NA NA NOT_NAMED 1942-09-27 18:00:00 TS 30.2000 -64.5000 35 hurdat_atl main 1198 1175 O_____________ hurdat_atl AL071942 30.2000 -64.5000 TS 35 0 5 294
1942270N30297 1942 58 NA NA NOT_NAMED 1942-09-27 21:00:00 TS 30.2925 -64.7501 main 1168 1145 P_____________ AL071942 30.2925 -64.7501 TS 35 0 5 295
1942270N30297 1942 58 NA NA NOT_NAMED 1942-09-28 00:00:00 TS 30.4000 -65.0000 35 hurdat_atl main 1145 1123 O_____________ hurdat_atl AL071942 30.4000 -65.0000 TS 35 0 5 300
1942270N30297 1942 58 NA NA NOT_NAMED 1942-09-28 03:00:00 TS 30.5425 -65.2500 main 1115 1087 P_____________ AL071942 30.5425 -65.2500 TS 37 0 5 305
1942270N30297 1942 58 NA NA NOT_NAMED 1942-09-28 06:00:00 TS 30.7000 -65.5000 40 hurdat_atl main 1087 1057 O_____________ hurdat_atl AL071942 30.7000 -65.5000 TS 40 0 5 303
1942270N30297 1942 58 NA NA NOT_NAMED 1942-09-28 09:00:00 TS 30.8350 -65.7651 main 1057 1029 P_____________ AL071942 30.8350 -65.7651 TS 40 0 5 305
1942270N30297 1942 58 NA NA NOT_NAMED 1942-09-28 12:00:00 TS 31.0000 -66.0000 40 hurdat_atl main 1029 1001 O_____________ hurdat_atl AL071942 31.0000 -66.0000 TS 40 0 5 318
1942270N30297 1942 58 NA NA NOT_NAMED 1942-09-28 15:00:00 TS 31.2199 -66.1652 main 1001 975 P_____________ AL071942 31.2199 -66.1652 TS 42 0 6 333
1942270N30297 1942 58 NA NA NOT_NAMED 1942-09-28 18:00:00 TS 31.5000 -66.3000 45 hurdat_atl main 975 949 O_____________ hurdat_atl AL071942 31.5000 -66.3000 TS 45 0 7 338
1942270N30297 1942 58 NA NA NOT_NAMED 1942-09-28 21:00:00 TS 31.8275 -66.4501 main 941 911 P_____________ AL071942 31.8275 -66.4501 TS 45 0 7 340
1942270N30297 1942 58 NA NA NOT_NAMED 1942-09-29 00:00:00 TS 32.2000 -66.6000 45 hurdat_atl main 911 874 O_____________ hurdat_atl AL071942 32.2000 -66.6000 TS 45 0 8 340
1942270N30297 1942 58 NA NA NOT_NAMED 1942-09-29 03:00:00 TS 32.5850 -66.7723 main 874 846 P_____________ AL071942 32.5850 -66.7723 TS 45 0 8 342
1942270N30297 1942 58 NA NA NOT_NAMED 1942-09-29 06:00:00 TS 33.0000 -66.9000 45 hurdat_atl main 846 820 O_____________ hurdat_atl AL071942 33.0000 -66.9000 TS 45 0 9 349
1942270N30297 1942 58 NA NA NOT_NAMED 1942-09-29 09:00:00 TS 33.4424 -66.9597 main 820 810 P_____________ AL071942 33.4424 -66.9597 TS 42 0 9 0
1942270N30297 1942 58 NA NA NOT_NAMED 1942-09-29 12:00:00 ET 33.9000 -66.9000 40 hurdat_atl main 810 804 O_____________ hurdat_atl AL071942 33.9000 -66.9000 EX 40 -4 9 12
1942270N30297 1942 58 NA NA NOT_NAMED 1942-09-29 15:00:00 ET 34.3574 -66.7174 main 813 811 P_____________ AL071942 34.3574 -66.7174 EX 40 -4 10 25
1942270N30297 1942 58 NA NA NOT_NAMED 1942-09-29 18:00:00 ET 34.8000 -66.4000 40 hurdat_atl main 829 798 O_____________ hurdat_atl AL071942 34.8000 -66.4000 EX 40 -4 10 34
1942270N30297 1942 58 NA NA NOT_NAMED 1942-09-29 21:00:00 ET 35.2071 -66.0168 main 802 778 P_____________ AL071942 35.2071 -66.0168 EX 37 -4 11 43
1942270N30297 1942 58 NA NA NOT_NAMED 1942-09-30 00:00:00 ET 35.6000 -65.5000 35 hurdat_atl main 782 771 O_____________ hurdat_atl AL071942 35.6000 -65.5000 EX 35 -4 12 50
1942270N30297 1942 58 NA NA NOT_NAMED 1942-09-30 03:00:00 ET 35.9986 -64.8418 main 777 768 P_____________ AL071942 35.9986 -64.8418 EX 32 -4 14 55
1942270N30297 1942 58 NA NA NOT_NAMED 1942-09-30 06:00:00 ET 36.4000 -64.1000 30 hurdat_atl main 778 O_____________ hurdat_atl AL071942 36.4000 -64.1000 EX 30 -4 14 56

About IBTrACS Database

This database is a web-friendly format of International Best Track Archive for Climate Stewardship (IBTrACS), a global best track data archive curated by NOAA dating back to 1842.

Updated: 2021-12-01